Time;durP1;ratioP1;P1;durP2;ratioP2;P2;SDS_P1;SDS_P2;PMS_P1;PMS_P2;Temp;Humidity;BMP_temperature;BMP_pressure;BME280_temperature;BME280_humidity;BME280_pressure;Samples;Min_cycle;Max_cycle;Signal;HPM_P1;HPM_P2
2022/11/28 00:00:53;;;;;;;;;;;6.30;99.90;;;;;;12584620;28;20062;-86
2022/11/28 00:06:54;;;;;;;;;;;6.30;99.90;;;;;;12572480;28;19925;-86
2022/11/28 00:12:56;;;;;;;;;;;6.40;99.90;;;;;;12589293;28;19935;-86
2022/11/28 00:18:59;;;;;;;;;;;6.40;99.90;;;;;;12569789;28;19932;-86
2022/11/28 00:25:00;;;;;;;;;;;6.40;99.90;;;;;;12563583;28;19935;-84
2022/11/28 00:31:02;;;;;;;;;;;6.40;99.90;;;;;;12578841;28;19935;-85
2022/11/28 00:37:04;;;;;;;;;;;6.30;99.90;;;;;;12580943;28;19929;-86
2022/11/28 00:43:06;;;;;;;;;;;6.30;99.90;;;;;;12569329;28;19925;-85
2022/11/28 00:49:07;;;;;;;;;;;6.40;99.90;;;;;;12584887;28;20273;-85
2022/11/28 00:55:09;;;;;;;;;;;6.40;99.90;;;;;;12589756;28;19933;-85
2022/11/28 01:01:11;;;;;;;;;;;6.50;99.90;;;;;;12585322;28;19924;-85
2022/11/28 01:07:13;;;;;;;;;;;6.50;99.90;;;;;;12572705;28;19928;-85
2022/11/28 01:13:14;;;;;;;;;;;6.50;99.90;;;;;;12578929;28;19995;-85
2022/11/28 01:19:16;;;;;;;;;;;6.40;99.90;;;;;;12577407;28;19933;-85
2022/11/28 01:25:18;;;;;;;;;;;6.50;99.90;;;;;;12578617;28;19929;-85
2022/11/28 01:31:21;;;;;;;;;;;6.30;99.90;;;;;;12586368;28;19932;-85
2022/11/28 01:37:23;;;;;;;;;;;6.30;99.90;;;;;;12590065;28;19950;-85
2022/11/28 01:43:25;;;;;;;;;;;6.20;99.90;;;;;;12584694;28;19929;-85
2022/11/28 01:49:29;;;;;;;;;;;6.20;99.90;;;;;;12574173;28;19925;-85
2022/11/28 01:55:32;;;;;;;;;;;6.10;99.90;;;;;;12573469;28;20379;-85
2022/11/28 02:01:33;;;;;;;;;;;6.20;99.90;;;;;;12574140;28;19931;-85
2022/11/28 02:07:36;;;;;;;;;;;6.10;99.90;;;;;;12591147;28;19991;-84
2022/11/28 02:13:37;;;;;;;;;;;6.20;99.90;;;;;;12588934;28;20011;-85
2022/11/28 02:19:55;;;;;;;;;;;6.20;99.90;;;;;;12584064;28;19936;-85
2022/11/28 02:26:02;;;;;;;;;;;6.20;99.90;;;;;;12581352;28;20391;-85
2022/11/28 02:32:09;;;;;;;;;;;6.30;99.90;;;;;;12580441;28;19924;-86
2022/11/28 02:38:31;;;;;;;;;;;6.20;99.90;;;;;;12562974;28;19946;-85
2022/11/28 02:44:36;;;;;;;;;;;6.20;99.90;;;;;;12510241;28;19963;-85
2022/11/28 02:51:04;;;;;;;;;;;6.10;99.90;;;;;;12582276;28;19939;-85
2022/11/28 02:57:07;;;;;;;;;;;6.10;99.90;;;;;;12536215;28;19940;-86
2022/11/28 03:03:27;;;;;;;;;;;6.00;99.90;;;;;;12581131;28;19925;-84
2022/11/28 03:09:29;;;;;;;;;;;6.00;99.90;;;;;;12572765;28;19925;-85
2022/11/28 03:15:39;;;;;;;;;;;6.00;99.90;;;;;;12576470;28;19929;-85
2022/11/28 03:21:43;;;;;;;;;;;6.00;99.90;;;;;;12587155;28;20411;-84
2022/11/28 03:28:08;;;;;;;;;;;6.10;99.90;;;;;;12579526;28;19932;-85
2022/11/28 03:34:12;;;;;;;;;;;6.00;99.90;;;;;;12546550;28;20293;-85
2022/11/28 03:40:19;;;;;;;;;;;6.00;99.90;;;;;;12571682;28;19939;-86
2022/11/28 03:46:22;;;;;;;;;;;6.00;99.90;;;;;;12579028;28;20369;-84
2022/11/28 03:52:28;;;;;;;;;;;6.00;99.90;;;;;;12569791;28;20388;-85
2022/11/28 03:58:45;;;;;;;;;;;5.90;99.90;;;;;;12581832;28;20363;-85
2022/11/28 04:04:53;;;;;;;;;;;5.90;99.90;;;;;;12576786;28;19935;-84
2022/11/28 04:10:56;;;;;;;;;;;5.90;99.90;;;;;;12571675;28;19931;-84
2022/11/28 04:17:04;;;;;;;;;;;5.90;99.90;;;;;;12584572;28;19924;-84
2022/11/28 04:23:09;;;;;;;;;;;6.00;99.90;;;;;;12597709;28;19924;-84
2022/11/28 04:29:13;;;;;;;;;;;6.00;99.90;;;;;;12586373;28;19932;-85
2022/11/28 04:35:17;;;;;;;;;;;6.00;99.90;;;;;;12582207;28;20294;-85
2022/11/28 04:41:21;;;;;;;;;;;6.00;99.90;;;;;;12577217;28;20320;-84
2022/11/28 04:47:23;;;;;;;;;;;6.00;99.90;;;;;;12587056;28;19925;-84
2022/11/28 04:53:35;;;;;;;;;;;5.90;99.90;;;;;;12573180;28;20340;-85
2022/11/28 04:59:38;;;;;;;;;;;6.10;99.90;;;;;;12571055;28;19924;-83
2022/11/28 05:05:45;;;;;;;;;;;6.00;99.90;;;;;;12554266;28;19925;-85
2022/11/28 05:11:47;;;;;;;;;;;6.00;99.90;;;;;;12587023;28;19925;-85
2022/11/28 05:17:48;;;;;;;;;;;6.00;99.90;;;;;;12575257;28;19924;-85
2022/11/28 05:23:50;;;;;;;;;;;6.10;99.90;;;;;;12579871;28;19931;-85
2022/11/28 05:29:52;;;;;;;;;;;6.10;99.90;;;;;;12581342;28;19929;-85
2022/11/28 05:35:54;;;;;;;;;;;6.10;99.90;;;;;;12570876;28;19925;-86
2022/11/28 05:41:56;;;;;;;;;;;6.10;99.90;;;;;;12582340;28;19929;-85
2022/11/28 05:47:58;;;;;;;;;;;6.10;99.90;;;;;;12576831;28;19931;-86
2022/11/28 05:53:59;;;;;;;;;;;6.10;99.90;;;;;;12581594;28;19932;-85
2022/11/28 06:00:02;;;;;;;;;;;6.10;99.90;;;;;;12575289;28;19936;-85
2022/11/28 06:06:06;;;;;;;;;;;6.10;99.90;;;;;;12563016;28;20376;-85
2022/11/28 06:12:08;;;;;;;;;;;6.00;99.90;;;;;;12570627;28;19932;-84
2022/11/28 06:18:10;;;;;;;;;;;6.00;99.90;;;;;;12592491;28;19932;-86
2022/11/28 06:24:11;;;;;;;;;;;6.10;99.90;;;;;;12580228;28;19924;-85
2022/11/28 06:30:13;;;;;;;;;;;6.10;99.90;;;;;;12566232;28;20051;-86
2022/11/28 06:36:16;;;;;;;;;;;6.10;99.90;;;;;;12575947;28;19933;-86
2022/11/28 06:42:18;;;;;;;;;;;6.00;99.90;;;;;;12577974;28;20038;-86
2022/11/28 06:48:20;;;;;;;;;;;5.90;99.90;;;;;;12561466;28;19950;-86
2022/11/28 06:54:22;;;;;;;;;;;5.80;99.90;;;;;;12580651;28;19936;-86
2022/11/28 07:00:24;;;;;;;;;;;5.80;99.90;;;;;;12579700;28;19925;-85
2022/11/28 07:06:26;;;;;;;;;;;5.70;99.90;;;;;;12563421;28;19977;-85
2022/11/28 07:12:27;;;;;;;;;;;5.50;99.90;;;;;;12575902;28;19924;-85
2022/11/28 07:18:29;;;;;;;;;;;5.40;99.90;;;;;;12579672;28;19929;-85
2022/11/28 07:24:31;;;;;;;;;;;5.40;99.90;;;;;;12581398;28;19924;-84
2022/11/28 07:30:33;;;;;;;;;;;5.20;99.90;;;;;;12591826;28;19924;-85
2022/11/28 07:36:34;;;;;;;;;;;5.20;99.90;;;;;;12570657;28;19929;-85
2022/11/28 07:42:36;;;;;;;;;;;5.20;99.90;;;;;;12592676;28;19932;-84
2022/11/28 07:48:38;;;;;;;;;;;5.20;99.90;;;;;;12546586;28;19929;-84
2022/11/28 07:54:40;;;;;;;;;;;5.20;99.90;;;;;;12572467;28;20288;-84
2022/11/28 08:00:41;;;;;;;;;;;5.30;99.90;;;;;;12578505;28;20403;-84
2022/11/28 08:06:43;;;;;;;;;;;5.30;99.90;;;;;;12572737;28;19935;-84
2022/11/28 08:12:45;;;;;;;;;;;5.30;99.90;;;;;;12584225;28;19928;-84
2022/11/28 08:18:48;;;;;;;;;;;5.30;99.90;;;;;;12558433;28;20279;-84
2022/11/28 08:24:49;;;;;;;;;;;5.40;99.90;;;;;;12582309;28;19928;-84
2022/11/28 08:30:51;;;;;;;;;;;5.40;99.90;;;;;;12577598;28;19928;-85
2022/11/28 08:36:52;;;;;;;;;;;5.50;99.90;;;;;;12583894;28;19931;-84
2022/11/28 08:42:54;;;;;;;;;;;5.30;99.90;;;;;;12584686;28;19925;-84
2022/11/28 08:48:56;;;;;;;;;;;5.30;99.90;;;;;;12570582;28;20018;-84
2022/11/28 08:54:57;;;;;;;;;;;5.30;99.90;;;;;;12566153;28;19932;-84
2022/11/28 09:00:59;;;;;;;;;;;5.30;99.90;;;;;;12557303;28;19924;-84
2022/11/28 09:07:16;;;;;;;;;;;5.20;99.90;;;;;;12643336;27;20380;-37
2022/11/28 09:13:18;;;;;;;;;;;5.30;99.90;;;;;;12575226;28;19974;-37
2022/11/28 09:19:20;;;;;;;;;;;5.50;99.90;;;;;;12562732;28;20394;-37
2022/11/28 09:25:21;;;;;;;;;;;5.40;99.90;;;;;;12479606;28;19933;-37
2022/11/28 09:31:23;;;;;;;;;;;5.50;99.90;;;;;;12478850;28;19933;-37
2022/11/28 09:37:26;;;;;;;;;;;5.50;99.90;;;;;;12466806;28;19972;-37
2022/11/28 09:43:34;;;;;;;;;;;5.60;99.90;;;;;;12466453;28;19925;-37
2022/11/28 09:49:40;;;;;;;;;;;5.60;99.90;;;;;;12472798;28;19925;-37
2022/11/28 09:55:51;;;;;;;;;;;5.60;99.90;;;;;;12458598;28;20028;-37
2022/11/28 10:02:08;;;;;;;;;;;5.70;99.90;;;;;;12448681;28;19933;-37
2022/11/28 10:08:17;;;;;;;;;;;5.80;99.90;;;;;;12404917;28;19926;-37
2022/11/28 10:14:19;;;;;;;;;;;5.80;99.90;;;;;;12422620;28;19933;-37
2022/11/28 10:20:29;;;;;;;;;;;5.90;99.90;;;;;;12373369;28;19926;-37
2022/11/28 10:26:40;;;;;;;;;;;5.90;99.90;;;;;;12387753;28;20321;-37
2022/11/28 10:32:44;;;;;;;;;;;5.90;99.90;;;;;;12389805;28;20065;-37
2022/11/28 10:38:45;;;;;;;;;;;5.80;99.90;;;;;;12365952;28;19929;-37
2022/11/28 10:44:47;;;;;;;;;;;5.70;99.90;;;;;;12379423;28;19934;-37
2022/11/28 10:50:56;;;;;;;;;;;5.70;99.90;;;;;;12409634;28;20386;-37
2022/11/28 10:57:01;;;;;;;;;;;5.60;99.90;;;;;;12376814;28;19949;-37
2022/11/28 11:03:03;;;;;;;;;;;5.70;99.90;;;;;;12390790;28;19926;-37
2022/11/28 11:09:04;;;;;;;;;;;5.70;99.90;;;;;;12393627;28;19927;-36
2022/11/28 11:15:15;;;;;;;;;;;5.70;99.90;;;;;;12391643;28;19925;-37
2022/11/28 11:21:21;;;;;;;;;;;5.80;99.90;;;;;;12388904;28;19936;-37
2022/11/28 11:27:23;;;;;;;;;;;5.90;99.90;;;;;;12394841;28;19998;-37
2022/11/28 11:33:29;;;;;;;;;;;5.90;99.90;;;;;;12398461;28;20290;-37
2022/11/28 11:39:30;;;;;;;;;;;5.90;99.90;;;;;;12394241;28;19933;-37
2022/11/28 11:45:33;;;;;;;;;;;6.10;99.90;;;;;;12384878;28;19926;-37
2022/11/28 11:51:35;;;;;;;;;;;6.10;99.90;;;;;;12401422;28;20313;-37
2022/11/28 11:57:50;;;;;;;;;;;6.20;99.90;;;;;;12388279;28;20011;-37
2022/11/28 12:03:53;;;;;;;;;;;6.30;99.90;;;;;;12410343;28;19925;-37
2022/11/28 12:09:55;;;;;;;;;;;6.30;99.90;;;;;;12393870;28;19926;-37
2022/11/28 12:16:20;;;;;;;;;;;6.30;99.90;;;;;;12393784;28;19929;-37
2022/11/28 12:22:22;;;;;;;;;;;6.30;99.90;;;;;;12391541;28;19935;-36
2022/11/28 12:28:41;;;;;;;;;;;6.30;99.90;;;;;;12386335;28;19937;-37
2022/11/28 12:34:42;;;;;;;;;;;6.30;99.90;;;;;;12378356;28;19926;-39
2022/11/28 12:40:47;;;;;;;;;;;6.40;99.90;;;;;;12356583;28;20290;-38
2022/11/28 12:46:48;;;;;;;;;;;6.40;99.90;;;;;;12367489;28;20306;-37
2022/11/28 12:52:50;;;;;;;;;;;6.50;99.90;;;;;;12379997;28;20298;-37
2022/11/28 12:59:14;;;;;;;;;;;6.50;99.90;;;;;;12381363;28;19926;-37
2022/11/28 13:05:22;;;;;;;;;;;6.50;99.90;;;;;;12371648;28;19932;-37
2022/11/28 13:11:33;;;;;;;;;;;6.50;99.90;;;;;;12361005;28;19933;-37
2022/11/28 13:17:35;;;;;;;;;;;6.50;99.90;;;;;;12386129;28;20072;-37
2022/11/28 13:23:37;;;;;;;;;;;6.50;99.90;;;;;;12383562;28;19933;-37
2022/11/28 13:29:56;;;;;;;;;;;6.50;99.90;;;;;;12373882;28;19965;-37
2022/11/28 13:35:58;;;;;;;;;;;6.50;99.90;;;;;;12368213;28;19926;-37
2022/11/28 13:42:00;;;;;;;;;;;6.40;99.90;;;;;;12366342;28;19928;-37
2022/11/28 13:48:34;;;;;;;;;;;6.40;99.90;;;;;;12359717;28;19930;-37
2022/11/28 13:54:56;;;;;;;;;;;6.40;99.90;;;;;;12387791;28;19926;-37
2022/11/28 14:01:12;;;;;;;;;;;6.30;99.90;;;;;;12380971;28;19926;-37
2022/11/28 14:07:24;;;;;;;;;;;6.30;99.90;;;;;;12379242;28;19934;-37
2022/11/28 14:13:31;;;;;;;;;;;6.30;99.90;;;;;;12386565;28;19930;-37
2022/11/28 14:19:54;;;;;;;;;;;6.30;99.90;;;;;;12376132;28;19961;-37
2022/11/28 14:25:57;;;;;;;;;;;6.30;99.90;;;;;;12372120;28;19933;-37
2022/11/28 14:31:59;;;;;;;;;;;6.30;99.90;;;;;;12389795;28;19968;-37
2022/11/28 14:38:29;;;;;;;;;;;6.30;99.90;;;;;;12368441;28;19926;-37
2022/11/28 14:44:50;;;;;;;;;;;6.30;99.90;;;;;;12377748;28;20420;-37
2022/11/28 14:50:52;;;;;;;;;;;6.30;99.90;;;;;;12370342;28;20289;-37
2022/11/28 14:57:09;;;;;;;;;;;6.30;99.90;;;;;;12384489;28;20405;-37
2022/11/28 15:03:29;;;;;;;;;;;6.30;99.90;;;;;;12375840;28;20707;-37
2022/11/28 15:09:41;;;;;;;;;;;6.30;99.90;;;;;;12372886;28;20387;-37
2022/11/28 15:15:51;;;;;;;;;;;6.30;99.90;;;;;;12369720;28;19929;-37
2022/11/28 15:21:53;;;;;;;;;;;6.30;99.90;;;;;;12384729;28;20005;-37
2022/11/28 15:27:55;;;;;;;;;;;6.30;99.90;;;;;;12385334;28;20500;-37
2022/11/28 15:33:58;;;;;;;;;;;6.20;99.90;;;;;;12379034;28;19979;-37
2022/11/28 15:40:03;;;;;;;;;;;6.00;99.90;;;;;;12356426;28;19925;-37
2022/11/28 15:46:06;;;;;;;;;;;6.10;99.90;;;;;;12368464;28;20040;-37
2022/11/28 15:52:14;;;;;;;;;;;6.00;99.90;;;;;;12374249;28;19926;-37
2022/11/28 15:58:18;;;;;;;;;;;6.00;99.90;;;;;;12379186;28;19988;-37
2022/11/28 16:04:20;;;;;;;;;;;6.00;99.90;;;;;;12374329;28;19957;-38
2022/11/28 16:10:27;;;;;;;;;;;5.90;99.90;;;;;;12376701;28;20270;-37
2022/11/28 16:16:31;;;;;;;;;;;5.90;99.90;;;;;;12375542;28;19930;-37
2022/11/28 16:22:36;;;;;;;;;;;5.90;99.90;;;;;;12393097;28;19930;-37
2022/11/28 16:28:39;;;;;;;;;;;5.80;99.90;;;;;;12379990;28;20329;-37
2022/11/28 16:34:48;;;;;;;;;;;5.80;99.90;;;;;;12376391;28;19926;-37
2022/11/28 16:40:50;;;;;;;;;;;5.90;99.90;;;;;;12379174;28;19925;-37
2022/11/28 16:46:53;;;;;;;;;;;5.80;99.90;;;;;;12379233;28;20568;-37
2022/11/28 16:52:56;;;;;;;;;;;5.80;99.90;;;;;;12371336;28;19933;-37
2022/11/28 16:59:10;;;;;;;;;;;5.80;99.90;;;;;;12379138;28;20028;-37
2022/11/28 17:05:11;;;;;;;;;;;5.70;99.90;;;;;;12377693;28;19936;-37
2022/11/28 17:11:14;;;;;;;;;;;5.80;99.90;;;;;;12375909;28;19956;-38
2022/11/28 17:17:17;;;;;;;;;;;5.80;99.90;;;;;;12372453;28;19926;-37
2022/11/28 17:23:23;;;;;;;;;;;5.70;99.90;;;;;;12377678;28;19937;-37
2022/11/28 17:29:24;;;;;;;;;;;5.70;99.90;;;;;;12385932;28;19930;-37
2022/11/28 17:35:29;;;;;;;;;;;5.70;99.90;;;;;;12377384;28;20005;-37
2022/11/28 17:41:31;;;;;;;;;;;5.70;99.90;;;;;;12377286;28;19936;-38
2022/11/28 17:47:33;;;;;;;;;;;5.70;99.90;;;;;;12380030;28;19926;-37
2022/11/28 17:53:35;;;;;;;;;;;5.70;99.90;;;;;;12391161;28;19929;-38
2022/11/28 17:59:37;;;;;;;;;;;5.70;99.90;;;;;;12388055;28;19925;-37
2022/11/28 18:05:39;;;;;;;;;;;5.70;99.90;;;;;;12383014;28;19925;-37
2022/11/28 18:11:42;;;;;;;;;;;5.80;99.90;;;;;;12397590;28;19933;-37
2022/11/28 18:17:43;;;;;;;;;;;5.70;99.90;;;;;;12404122;28;19930;-37
2022/11/28 18:23:48;;;;;;;;;;;5.70;99.90;;;;;;12386175;28;19983;-38
2022/11/28 18:29:50;;;;;;;;;;;5.80;99.90;;;;;;12396501;28;19933;-37
2022/11/28 18:35:51;;;;;;;;;;;5.80;99.90;;;;;;12385982;28;19984;-37
2022/11/28 18:41:53;;;;;;;;;;;5.80;99.90;;;;;;12392256;28;19926;-37
2022/11/28 18:47:55;;;;;;;;;;;5.80;99.90;;;;;;12374086;28;19934;-37
2022/11/28 18:54:02;;;;;;;;;;;5.80;99.90;;;;;;12387664;28;19938;-38
2022/11/28 19:00:04;;;;;;;;;;;5.80;99.90;;;;;;12385472;28;20024;-38
2022/11/28 19:06:08;;;;;;;;;;;5.80;99.90;;;;;;12373278;28;19941;-37
2022/11/28 19:12:10;;;;;;;;;;;5.80;99.90;;;;;;12383788;28;20389;-37
2022/11/28 19:18:12;;;;;;;;;;;5.80;99.90;;;;;;12386241;28;19925;-37
2022/11/28 19:24:14;;;;;;;;;;;5.80;99.90;;;;;;12380533;28;19937;-37
2022/11/28 19:30:16;;;;;;;;;;;5.80;99.90;;;;;;12365307;28;20510;-37
2022/11/28 19:36:18;;;;;;;;;;;5.80;99.90;;;;;;12386447;28;19933;-38
2022/11/28 19:42:19;;;;;;;;;;;5.80;99.90;;;;;;12384386;28;19936;-38
2022/11/28 19:48:21;;;;;;;;;;;5.70;99.90;;;;;;12383002;28;19937;-38
2022/11/28 19:54:23;;;;;;;;;;;5.70;99.90;;;;;;12388079;28;19926;-37
2022/11/28 20:00:25;;;;;;;;;;;5.70;99.90;;;;;;12368046;28;19937;-38
2022/11/28 20:06:28;;;;;;;;;;;5.70;99.90;;;;;;12391528;28;19926;-37
2022/11/28 20:12:30;;;;;;;;;;;5.70;99.90;;;;;;12378448;28;19934;-37
2022/11/28 20:18:32;;;;;;;;;;;5.60;99.90;;;;;;12384133;28;20067;-37
2022/11/28 20:24:33;;;;;;;;;;;5.70;99.90;;;;;;12370035;28;19929;-37
2022/11/28 20:30:35;;;;;;;;;;;5.70;99.90;;;;;;12380745;28;19945;-37
2022/11/28 20:36:37;;;;;;;;;;;5.70;99.90;;;;;;12365121;28;19932;-37
2022/11/28 20:42:39;;;;;;;;;;;5.70;99.90;;;;;;12368627;28;19934;-38
2022/11/28 20:48:41;;;;;;;;;;;5.80;99.90;;;;;;12369867;28;20007;-37
2022/11/28 20:54:42;;;;;;;;;;;5.70;99.90;;;;;;12375874;28;19961;-37
2022/11/28 21:00:44;;;;;;;;;;;5.70;99.90;;;;;;12384590;28;19929;-37
2022/11/28 21:06:47;;;;;;;;;;;5.80;99.90;;;;;;12376610;28;19956;-37
2022/11/28 21:12:50;;;;;;;;;;;5.80;99.90;;;;;;12377133;28;19937;-37
2022/11/28 21:18:51;;;;;;;;;;;5.80;99.90;;;;;;12384284;28;20369;-37
2022/11/28 21:24:53;;;;;;;;;;;5.80;99.90;;;;;;12384720;28;19934;-37
2022/11/28 21:30:55;;;;;;;;;;;5.80;99.90;;;;;;12366157;28;19929;-37
2022/11/28 21:36:57;;;;;;;;;;;5.80;99.90;;;;;;12387138;28;19937;-37
2022/11/28 21:42:58;;;;;;;;;;;5.80;99.90;;;;;;12378255;28;19929;-37
2022/11/28 21:49:00;;;;;;;;;;;5.80;99.90;;;;;;12381836;28;19933;-37
2022/11/28 21:55:02;;;;;;;;;;;5.80;99.90;;;;;;12378472;28;19937;-37
2022/11/28 22:01:06;;;;;;;;;;;5.80;99.90;;;;;;12383001;28;19930;-37
2022/11/28 22:07:07;;;;;;;;;;;5.80;99.90;;;;;;12375672;28;19933;-37
2022/11/28 22:13:09;;;;;;;;;;;5.80;99.90;;;;;;12388603;28;19993;-38
2022/11/28 22:19:11;;;;;;;;;;;5.80;99.90;;;;;;12395159;28;20282;-37
2022/11/28 22:25:13;;;;;;;;;;;5.80;99.90;;;;;;12385557;28;19926;-37
2022/11/28 22:31:16;;;;;;;;;;;5.90;99.90;;;;;;12388591;28;20389;-37
2022/11/28 22:37:18;;;;;;;;;;;5.80;99.90;;;;;;12392668;28;19930;-37
2022/11/28 22:43:20;;;;;;;;;;;5.80;99.90;;;;;;12396924;28;19926;-37
2022/11/28 22:49:22;;;;;;;;;;;5.80;99.90;;;;;;12367863;28;19926;-37
2022/11/28 22:55:23;;;;;;;;;;;5.80;99.90;;;;;;12369095;28;20387;-37
2022/11/28 23:01:27;;;;;;;;;;;5.80;99.90;;;;;;12382900;28;20415;-37
2022/11/28 23:07:29;;;;;;;;;;;5.80;99.90;;;;;;12386975;28;19941;-37
2022/11/28 23:13:31;;;;;;;;;;;5.80;99.90;;;;;;12392418;28;20048;-37
2022/11/28 23:19:33;;;;;;;;;;;5.80;99.90;;;;;;12383587;28;20021;-37
2022/11/28 23:25:35;;;;;;;;;;;5.80;99.90;;;;;;12396040;28;20413;-37
2022/11/28 23:31:38;;;;;;;;;;;5.80;99.90;;;;;;12387674;28;20317;-37
2022/11/28 23:37:40;;;;;;;;;;;5.80;99.90;;;;;;12376069;28;19933;-37
2022/11/28 23:43:41;;;;;;;;;;;5.90;99.90;;;;;;12370860;28;19926;-38
2022/11/28 23:49:43;;;;;;;;;;;5.80;99.90;;;;;;12374721;28;19953;-37
2022/11/28 23:55:45;;;;;;;;;;;5.80;99.90;;;;;;12375950;28;20433;-37
